Startpagina
METAR-TAF:

METAR-TAF

Vliegvelden :

Hanoi, Vietnam

Internationale Luchthaven Nội Bài

breedte: 21-01N, lengte: 105-48E, hoogte: 6 m

Actueel weer

Dit bericht is 33 minuten geleden gemaakt, om 06:00 UTC
Wind 9 kt uit het oostnoordoosten
Temperatuur 22°C
Vochtigheid 65%
Druk 1016 hPa
Zicht 10 km of meer
Weinig wolken op 2500 ft
Gebroken wolken op 4500 ft

METAR: VVNB 190600Z 06009KT 9999 FEW025 BKN045 22/15 Q1016 NOSIG

Tijdstip: 13:33 (06:33 UTC)

Verwachting

Dit bericht is 1 uur en het 33 minuten geleden gemaakt, om 05:00 UTC
Verwachting geldig van 19 om 06 UTC tot 20 om 06 UTC
Wind 9 kt uit het oostnoordoosten
Zicht 10 km of meer
Weinig wolken op 2500 ft
Gebroken wolken op 5000 ft
Tijdelijke
van 19 om 18 UTC tot 19 om 24 UTC
Zicht: 4000 m
Weinig wolken op 600 ft
Gebroken wolken op 4000 ft
lichte motregen, nevel

TAF: VVNB 190500Z 1906/2006 07009KT 9999 FEW025 BKN050 TEMPO 1918/1924 4000 -DZ BR FEW006 BKN040

Waarnemingen en weersverwachtingen van meer dan 4000 vliegvelden (METAR en TAF).

De beschikbare stations zijn de gele en rode punten op de kaart.

Ga met uw muis naar het station om de naam te zien.

Klik dan om waarnemingen en weersverwachtingen te zien.

kaart wijzigen: klik op de groene knoppen met een zwart kruis om in te zoomen, op de groene knop met een streepje om uit te zoomen of op de groene pijlen voor aangrenzende kaarten.


METAR-TAF: